Time;durP1;ratioP1;P1;durP2;ratioP2;P2;SDS_P1;SDS_P2;PMS_P1;PMS_P2;Temp;Humidity;BMP_temperature;BMP_pressure;BME280_temperature;BME280_humidity;BME280_pressure;Samples;Min_cycle;Max_cycle;Signal;HPM_P1;HPM_P2
2023/09/29 00:00:31;;;;;;;43.65;38.17;;;22.10;99.90;;;;;;5066389;28;20045;-62
2023/09/29 00:02:57;;;;;;;47.80;37.15;;;22.00;99.90;;;;;;5066867;28;20094;-61
2023/09/29 00:05:23;;;;;;;47.78;37.92;;;21.60;99.90;;;;;;5059190;28;20043;-61
2023/09/29 00:07:51;;;;;;;47.13;38.67;;;22.10;99.90;;;;;;5062257;28;20041;-62
2023/09/29 00:10:17;;;;;;;48.17;39.17;;;21.70;99.90;;;;;;5059114;28;20048;-62
2023/09/29 00:12:44;;;;;;;47.90;38.78;;;21.60;99.90;;;;;;5064236;28;20051;-62
2023/09/29 00:15:11;;;;;;;43.75;37.63;;;21.90;99.90;;;;;;5060658;28;20052;-62
2023/09/29 00:17:37;;;;;;;48.55;36.53;;;21.60;99.90;;;;;;5061040;28;20080;-62
2023/09/29 00:20:12;;;;;;;46.08;38.65;;;22.20;99.90;;;;;;5059591;28;20052;-62
2023/09/29 00:22:38;;;;;;;44.17;36.72;;;22.20;99.90;;;;;;5062612;28;20115;-62
2023/09/29 00:25:05;;;;;;;47.70;36.72;;;21.60;99.90;;;;;;5062399;28;20041;-62
2023/09/29 00:27:31;;;;;;;41.38;36.45;;;22.20;99.90;;;;;;5066541;28;20051;-62
2023/09/29 00:29:57;;;;;;;47.25;36.78;;;22.30;99.90;;;;;;5066624;28;20045;-62
2023/09/29 00:32:22;;;;;;;44.08;35.97;;;22.20;99.90;;;;;;5062347;28;20040;-62
2023/09/29 00:34:48;;;;;;;47.08;35.55;;;22.00;99.90;;;;;;5066212;28;20044;-62
2023/09/29 00:37:14;;;;;;;41.80;34.97;;;22.20;99.90;;;;;;5062235;28;20491;-61
2023/09/29 00:39:40;;;;;;;40.83;34.30;;;22.20;99.90;;;;;;5069155;28;20367;-62
2023/09/29 00:42:06;;;;;;;44.92;34.08;;;21.90;99.90;;;;;;5065072;28;20047;-62
2023/09/29 00:44:35;;;;;;;39.00;32.88;;;22.30;99.90;;;;;;5070216;28;20518;-62
2023/09/29 00:47:02;;;;;;;38.47;32.58;;;22.10;99.90;;;;;;5067845;28;20127;-62
2023/09/29 00:49:29;;;;;;;43.45;33.55;;;22.40;99.90;;;;;;5069904;28;20079;-62
2023/09/29 00:51:59;;;;;;;41.45;33.13;;;22.40;99.90;;;;;;5066192;28;20593;-62
2023/09/29 00:54:30;;;;;;;40.85;32.97;;;22.40;99.90;;;;;;5065919;28;20032;-62
2023/09/29 00:56:59;;;;;;;40.80;33.53;;;22.30;99.90;;;;;;5069857;28;20055;-62
2023/09/29 00:59:25;;;;;;;44.25;33.30;;;22.40;99.90;;;;;;5069811;28;20037;-62
2023/09/29 01:01:51;;;;;;;40.72;33.00;;;22.00;99.90;;;;;;5066551;28;20036;-62
2023/09/29 01:04:18;;;;;;;40.63;34.28;;;22.50;99.90;;;;;;5064953;28;20056;-66
2023/09/29 01:06:45;;;;;;;38.90;33.80;;;22.10;99.90;;;;;;5062487;28;20041;-65
2023/09/29 01:09:11;;;;;;;39.15;32.95;;;22.10;99.90;;;;;;5063924;28;20040;-65
2023/09/29 01:11:43;;;;;;;40.55;32.70;;;22.50;99.90;;;;;;5059190;28;20131;-65
2023/09/29 01:14:12;;;;;;;37.45;33.10;;;22.70;99.90;;;;;;5066240;28;20044;-65
2023/09/29 01:16:39;;;;;;;38.95;31.13;;;22.30;99.90;;;;;;5062956;28;20132;-65
2023/09/29 01:19:11;;;;;;;41.97;31.08;;;22.10;99.90;;;;;;5066650;28;20111;-65
2023/09/29 01:21:39;;;;;;;37.40;29.85;;;22.80;99.90;;;;;;5065279;28;20127;-65
2023/09/29 01:24:07;;;;;;;34.00;30.08;;;22.60;99.90;;;;;;5069487;28;20439;-65
2023/09/29 01:26:32;;;;;;;40.80;30.55;;;22.60;99.90;;;;;;5063883;28;20040;-65
2023/09/29 01:28:58;;;;;;;36.97;29.55;;;22.40;99.90;;;;;;5069212;28;20112;-64
2023/09/29 01:31:24;;;;;;;37.75;29.85;;;22.30;99.90;;;;;;5067780;28;20044;-66
2023/09/29 01:33:49;;;;;;;38.72;29.15;;;22.40;99.90;;;;;;5058041;28;20120;-65
2023/09/29 01:36:16;;;;;;;42.67;29.83;;;22.30;99.90;;;;;;5065011;28;20090;-64
2023/09/29 01:38:42;;;;;;;38.97;30.38;;;22.70;99.90;;;;;;5065275;28;20048;-65
2023/09/29 01:41:09;;;;;;;41.40;30.05;;;22.30;99.90;;;;;;5064472;28;20087;-64
2023/09/29 01:43:34;;;;;;;39.72;29.95;;;22.60;99.90;;;;;;5064819;28;20090;-64
2023/09/29 01:46:01;;;;;;;36.92;30.17;;;22.10;99.90;;;;;;5068514;28;20037;-65
2023/09/29 01:48:26;;;;;;;37.92;30.48;;;22.70;99.90;;;;;;5067316;28;20036;-65
2023/09/29 01:50:52;;;;;;;41.72;30.85;;;22.60;99.90;;;;;;5066198;28;20106;-66
2023/09/29 01:53:17;;;;;;;37.92;30.70;;;22.30;99.90;;;;;;5068971;28;20076;-65
2023/09/29 01:55:43;;;;;;;41.25;31.00;;;22.30;99.90;;;;;;5064997;28;20494;-65
2023/09/29 01:58:09;;;;;;;41.00;30.25;;;22.70;99.90;;;;;;5065000;28;20056;-66
2023/09/29 02:00:34;;;;;;;36.28;30.92;;;22.60;99.90;;;;;;5064525;28;20464;-65
2023/09/29 02:03:01;;;;;;;42.08;31.77;;;22.30;99.90;;;;;;5064227;28;20185;-66
2023/09/29 02:05:26;;;;;;;38.75;30.98;;;22.10;99.90;;;;;;5060314;28;20041;-65
2023/09/29 02:07:52;;;;;;;44.63;31.40;;;22.70;99.90;;;;;;5067346;28;20062;-65
2023/09/29 02:10:20;;;;;;;38.58;30.73;;;22.50;99.90;;;;;;5062693;28;20537;-65
2023/09/29 02:12:55;;;;;;;41.58;31.13;;;22.20;99.90;;;;;;5064403;28;20040;-65
2023/09/29 02:15:21;;;;;;;36.23;29.93;;;22.60;99.90;;;;;;5061193;28;20052;-61
2023/09/29 02:17:49;;;;;;;40.63;30.42;;;22.60;99.90;;;;;;5066696;28;20052;-60
2023/09/29 02:20:17;;;;;;;44.40;30.33;;;22.50;99.90;;;;;;5062560;28;20139;-61
2023/09/29 02:22:43;;;;;;;33.97;29.88;;;22.60;99.90;;;;;;5066860;28;20118;-62
2023/09/29 02:25:10;;;;;;;35.80;28.67;;;22.60;99.90;;;;;;5068367;28;20048;-61
2023/09/29 02:27:36;;;;;;;38.22;29.38;;;22.30;99.90;;;;;;5067983;28;20048;-60
2023/09/29 02:30:03;;;;;;;36.78;28.80;;;22.30;99.90;;;;;;5067789;28;20044;-60
2023/09/29 02:32:29;;;;;;;36.45;29.42;;;22.60;99.90;;;;;;5064311;28;20040;-60
2023/09/29 02:34:55;;;;;;;33.97;28.88;;;22.60;99.90;;;;;;5050788;28;20044;-60
2023/09/29 02:37:21;;;;;;;36.38;28.65;;;22.60;99.90;;;;;;5068615;28;20048;-61
2023/09/29 02:39:47;;;;;;;34.80;28.48;;;22.50;99.90;;;;;;5068386;28;20498;-62
2023/09/29 02:42:13;;;;;;;35.10;27.08;;;22.30;99.90;;;;;;5068150;28;20052;-61
2023/09/29 02:44:39;;;;;;;41.05;29.17;;;22.50;99.90;;;;;;5068251;28;20334;-61
2023/09/29 02:47:05;;;;;;;34.67;29.45;;;22.70;99.90;;;;;;5068032;28;20044;-61
2023/09/29 02:49:33;;;;;;;38.13;31.23;;;22.60;99.90;;;;;;5068324;28;20067;-61
2023/09/29 02:51:59;;;;;;;41.95;31.67;;;22.70;99.90;;;;;;5068599;28;20135;-60
2023/09/29 02:54:25;;;;;;;36.70;30.60;;;22.70;99.90;;;;;;5068175;28;20094;-60
2023/09/29 02:56:51;;;;;;;44.33;30.63;;;22.60;99.90;;;;;;5067892;28;20072;-63
2023/09/29 02:59:16;;;;;;;36.75;30.33;;;22.60;99.90;;;;;;5068546;28;20478;-60
2023/09/29 03:01:44;;;;;;;38.53;30.50;;;22.60;99.90;;;;;;5067130;28;20036;-61
2023/09/29 03:04:10;;;;;;;42.00;30.80;;;22.40;99.90;;;;;;5068136;28;20033;-60
2023/09/29 03:06:35;;;;;;;39.78;30.63;;;22.20;99.90;;;;;;5067919;28;20403;-62
2023/09/29 03:09:01;;;;;;;36.35;29.75;;;22.30;99.90;;;;;;5068196;28;20028;-61
2023/09/29 03:11:26;;;;;;;34.17;29.45;;;22.60;99.90;;;;;;5068044;28;20074;-61
2023/09/29 03:13:55;;;;;;;42.78;31.30;;;22.70;99.90;;;;;;5067742;28;20048;-61
2023/09/29 03:16:24;;;;;;;40.67;30.88;;;22.30;99.90;;;;;;5066052;28;20131;-62
2023/09/29 03:18:50;;;;;;;38.47;29.63;;;22.70;99.90;;;;;;5067894;28;20127;-60
2023/09/29 03:21:16;;;;;;;37.85;30.38;;;22.70;99.90;;;;;;5067734;28;20059;-60
2023/09/29 03:23:42;;;;;;;37.15;29.65;;;22.70;99.90;;;;;;5068005;28;20115;-61
2023/09/29 03:26:09;;;;;;;38.45;29.13;;;22.50;99.90;;;;;;5067632;28;20494;-64
2023/09/29 03:28:35;;;;;;;37.25;28.80;;;22.40;99.90;;;;;;5066380;28;20402;-63
2023/09/29 03:31:07;;;;;;;38.55;29.40;;;22.70;99.90;;;;;;5067551;28;20040;-64
2023/09/29 03:33:33;;;;;;;40.35;28.08;;;22.60;99.90;;;;;;5047993;28;20113;-64
2023/09/29 03:35:59;;;;;;;36.28;28.35;;;22.40;99.90;;;;;;5047696;28;20052;-64
2023/09/29 03:38:26;;;;;;;34.50;27.05;;;22.60;99.90;;;;;;5047883;28;20041;-64
2023/09/29 03:40:52;;;;;;;33.08;26.88;;;22.60;99.90;;;;;;5047280;28;20057;-63
2023/09/29 03:43:23;;;;;;;36.75;27.17;;;23.00;99.90;;;;;;5046411;28;20045;-64
2023/09/29 03:45:53;;;;;;;30.17;26.90;;;22.90;99.90;;;;;;5047693;28;20466;-64
2023/09/29 03:48:19;;;;;;;34.35;27.48;;;22.70;99.90;;;;;;5047721;28;20049;-64
2023/09/29 03:50:49;;;;;;;35.08;27.77;;;22.90;99.90;;;;;;5047335;28;20505;-64
2023/09/29 03:53:16;;;;;;;38.67;29.45;;;23.00;99.90;;;;;;5047382;28;20131;-64
2023/09/29 03:55:42;;;;;;;39.55;29.98;;;23.30;99.90;;;;;;5047126;28;20051;-64
2023/09/29 03:58:08;;;;;;;41.83;31.33;;;23.10;99.90;;;;;;5047510;28;20045;-64
2023/09/29 04:00:33;;;;;;;46.00;33.22;;;22.80;99.90;;;;;;5047072;28;20056;-64
2023/09/29 04:02:59;;;;;;;46.28;36.42;;;22.90;99.90;;;;;;5047108;28;20491;-64
2023/09/29 04:05:25;;;;;;;46.88;36.22;;;22.90;99.90;;;;;;5047073;28;20046;-64
2023/09/29 04:07:50;;;;;;;42.22;36.65;;;23.00;99.90;;;;;;5047176;28;20513;-64
2023/09/29 04:10:16;;;;;;;50.58;39.55;;;23.30;99.90;;;;;;5046782;28;20528;-64
2023/09/29 04:12:46;;;;;;;51.38;41.40;;;23.40;99.90;;;;;;5047315;28;20514;-64
2023/09/29 04:15:11;;;;;;;55.13;41.35;;;23.40;99.90;;;;;;5050876;28;20060;-64
2023/09/29 04:17:38;;;;;;;50.38;39.67;;;23.40;99.90;;;;;;5051363;28;20037;-64
2023/09/29 04:20:05;;;;;;;52.50;39.70;;;23.10;99.90;;;;;;5051465;28;20048;-64
2023/09/29 04:22:32;;;;;;;44.80;38.33;;;23.20;99.90;;;;;;5051388;28;20045;-65
2023/09/29 04:24:58;;;;;;;41.55;36.42;;;22.90;99.90;;;;;;5051151;28;20037;-64
2023/09/29 04:27:23;;;;;;;45.80;37.03;;;23.20;99.90;;;;;;5051179;28;20118;-65
2023/09/29 04:29:50;;;;;;;45.33;36.22;;;23.30;99.90;;;;;;5050891;28;20072;-65
2023/09/29 04:32:16;;;;;;;43.78;35.83;;;23.10;99.90;;;;;;5050997;28;20103;-65
2023/09/29 04:34:41;;;;;;;40.10;35.65;;;22.60;99.90;;;;;;5050806;28;20453;-65
2023/09/29 04:37:07;;;;;;;42.63;36.25;;;23.20;99.90;;;;;;5050751;28;20040;-66
2023/09/29 04:39:32;;;;;;;45.03;35.78;;;22.90;99.90;;;;;;5052052;28;20123;-66
2023/09/29 04:41:58;;;;;;;42.55;35.42;;;23.00;99.90;;;;;;5069919;28;20542;-67
2023/09/29 04:44:23;;;;;;;40.72;35.72;;;22.90;99.90;;;;;;5065969;28;20397;-66
2023/09/29 04:46:50;;;;;;;45.22;36.38;;;22.70;99.90;;;;;;5066617;28;20052;-67
2023/09/29 04:49:16;;;;;;;42.28;35.95;;;23.30;99.90;;;;;;5068868;28;20052;-66
2023/09/29 04:51:43;;;;;;;45.25;38.35;;;23.00;99.90;;;;;;5061679;28;20051;-66
2023/09/29 04:54:10;;;;;;;45.97;36.83;;;23.20;99.90;;;;;;5069734;28;20044;-67
2023/09/29 04:56:35;;;;;;;40.38;36.20;;;22.70;99.90;;;;;;5067675;28;20051;-66
2023/09/29 04:59:01;;;;;;;47.55;37.00;;;23.10;99.90;;;;;;5061763;28;20032;-67
2023/09/29 05:01:27;;;;;;;41.47;35.88;;;23.60;99.90;;;;;;5065930;28;20061;-67
2023/09/29 05:03:52;;;;;;;47.28;37.53;;;23.00;99.90;;;;;;5069606;28;20043;-67
2023/09/29 05:06:18;;;;;;;43.80;37.30;;;22.70;99.90;;;;;;5065787;28;20459;-66
2023/09/29 05:08:44;;;;;;;45.33;37.00;;;23.30;99.90;;;;;;5067666;28;20110;-66
2023/09/29 05:11:21;;;;;;;48.03;38.10;;;23.40;99.90;;;;;;5053004;28;20036;-66
2023/09/29 05:13:47;;;;;;;41.47;37.05;;;23.30;99.90;;;;;;5050076;28;20130;-66
2023/09/29 05:16:13;;;;;;;45.85;36.70;;;22.70;99.90;;;;;;5049674;28;20041;-66
2023/09/29 05:18:38;;;;;;;46.85;36.45;;;22.80;99.90;;;;;;5056438;28;20052;-67
2023/09/29 05:21:04;;;;;;;41.78;35.85;;;23.10;99.90;;;;;;5068717;28;20037;-67
2023/09/29 05:23:29;;;;;;;39.35;35.17;;;23.70;99.90;;;;;;5069563;28;20041;-67
2023/09/29 05:25:55;;;;;;;40.60;36.15;;;23.40;99.90;;;;;;5069218;28;20052;-66
2023/09/29 05:28:21;;;;;;;43.45;35.33;;;23.50;99.90;;;;;;5065107;28;20040;-66
2023/09/29 05:30:53;;;;;;;43.75;35.60;;;22.90;99.90;;;;;;5049734;28;20506;-66
2023/09/29 05:33:19;;;;;;;39.75;34.85;;;23.30;99.90;;;;;;5050407;28;20144;-66
2023/09/29 05:35:46;;;;;;;40.28;36.13;;;22.80;99.90;;;;;;5063246;28;20123;-67
2023/09/29 05:38:12;;;;;;;41.33;35.22;;;22.70;99.90;;;;;;5068396;28;20467;-66
2023/09/29 05:40:38;;;;;;;41.10;36.03;;;23.40;99.90;;;;;;5069524;28;20127;-67
2023/09/29 05:43:07;;;;;;;40.35;35.63;;;22.80;99.90;;;;;;5069432;28;20049;-65
2023/09/29 05:45:36;;;;;;;40.00;35.45;;;22.80;99.90;;;;;;5069168;28;20089;-66
2023/09/29 05:48:02;;;;;;;40.72;35.38;;;23.10;99.90;;;;;;5067696;28;20085;-66
2023/09/29 05:50:27;;;;;;;44.85;35.90;;;22.60;99.90;;;;;;5049235;28;20489;-66
2023/09/29 05:52:53;;;;;;;46.45;36.88;;;22.90;99.90;;;;;;5049433;28;20522;-66
2023/09/29 05:55:18;;;;;;;41.03;36.20;;;23.30;99.90;;;;;;5049315;28;20048;-66
2023/09/29 05:57:44;;;;;;;39.50;35.35;;;23.20;99.90;;;;;;5049139;28;20045;-67
2023/09/29 06:00:13;;;;;;;38.80;34.60;;;23.00;99.90;;;;;;5067335;28;20052;-66
2023/09/29 06:02:39;;;;;;;41.75;35.42;;;23.30;99.90;;;;;;5068895;28;20060;-66
2023/09/29 06:05:06;;;;;;;39.00;34.53;;;22.80;99.90;;;;;;5069133;28;20041;-67
2023/09/29 06:07:32;;;;;;;43.83;35.45;;;23.40;99.90;;;;;;5069124;28;20444;-66
2023/09/29 06:09:58;;;;;;;38.35;34.20;;;22.90;99.90;;;;;;5068706;28;20041;-66
2023/09/29 06:12:23;;;;;;;42.45;35.03;;;23.00;99.90;;;;;;5069398;28;20495;-68
2023/09/29 06:14:49;;;;;;;39.78;35.22;;;23.50;99.90;;;;;;5067947;28;20134;-69
2023/09/29 06:17:14;;;;;;;41.67;34.38;;;22.80;99.90;;;;;;5058610;28;20056;-67
2023/09/29 06:19:41;;;;;;;46.25;35.45;;;22.90;99.90;;;;;;5061556;28;20083;-69
2023/09/29 06:22:06;;;;;;;42.08;35.28;;;23.10;99.90;;;;;;5061522;28;20048;-68
2023/09/29 06:24:32;;;;;;;40.63;34.63;;;23.30;99.90;;;;;;5062857;28;20063;-68
2023/09/29 06:26:58;;;;;;;39.85;34.20;;;23.30;99.90;;;;;;5060033;28;20339;-68
2023/09/29 06:29:24;;;;;;;42.55;34.72;;;23.60;99.90;;;;;;5060406;28;20489;-67
2023/09/29 06:31:49;;;;;;;39.05;34.15;;;23.30;99.90;;;;;;5064764;28;20123;-68
2023/09/29 06:34:15;;;;;;;43.05;35.65;;;23.60;99.90;;;;;;5065982;28;20156;-68
2023/09/29 06:36:41;;;;;;;41.00;34.42;;;23.60;99.90;;;;;;5062781;28;20098;-67
2023/09/29 06:39:06;;;;;;;38.72;34.53;;;24.40;99.90;;;;;;5062983;28;20502;-68
2023/09/29 06:41:32;;;;;;;38.38;33.97;;;23.80;99.90;;;;;;5059291;28;20045;-68
2023/09/29 06:43:57;;;;;;;36.50;32.85;;;23.20;99.90;;;;;;5062847;28;20048;-67
2023/09/29 06:46:23;;;;;;;41.20;33.70;;;23.70;99.90;;;;;;5058046;28;20499;-68
2023/09/29 06:48:48;;;;;;;37.70;33.50;;;24.10;99.90;;;;;;5056700;28;20057;-67
2023/09/29 06:51:14;;;;;;;38.55;33.97;;;23.30;99.90;;;;;;5061298;28;20123;-68
2023/09/29 06:53:40;;;;;;;38.05;33.92;;;23.50;99.90;;;;;;5059985;28;20040;-68
2023/09/29 06:56:06;;;;;;;37.72;33.65;;;23.30;99.90;;;;;;5063282;28;20044;-66
2023/09/29 06:58:32;;;;;;;38.35;34.22;;;23.30;99.90;;;;;;5064571;28;20044;-65
2023/09/29 07:00:58;;;;;;;38.22;33.35;;;23.60;99.90;;;;;;5064849;28;20043;-69
2023/09/29 07:03:26;;;;;;;37.33;33.22;;;24.00;99.90;;;;;;5064769;28;20592;-68
2023/09/29 07:05:51;;;;;;;37.90;33.75;;;23.40;99.90;;;;;;5064603;28;20037;-67
2023/09/29 07:08:17;;;;;;;37.70;33.63;;;23.90;99.90;;;;;;5059464;28;20562;-67
2023/09/29 07:10:43;;;;;;;36.13;32.35;;;23.40;99.90;;;;;;5066297;28;20045;-66
2023/09/29 07:13:10;;;;;;;37.50;33.45;;;24.00;99.90;;;;;;5063953;28;20433;-66
2023/09/29 07:15:36;;;;;;;37.50;33.63;;;23.70;99.90;;;;;;5063872;28;20529;-66
2023/09/29 07:18:01;;;;;;;38.53;34.50;;;24.00;99.90;;;;;;5061966;28;20037;-66
2023/09/29 07:20:27;;;;;;;37.92;33.88;;;24.20;99.90;;;;;;5065849;28;20064;-66
2023/09/29 07:22:53;;;;;;;37.65;33.95;;;23.60;99.90;;;;;;5065732;28;20383;-66
2023/09/29 07:25:18;;;;;;;38.88;34.50;;;23.80;99.90;;;;;;5061594;28;20036;-66
2023/09/29 07:27:45;;;;;;;39.75;35.05;;;24.00;99.90;;;;;;5066753;28;20246;-66
2023/09/29 07:30:10;;;;;;;37.63;33.63;;;24.00;99.90;;;;;;5061975;28;20119;-66
2023/09/29 07:32:41;;;;;;;37.72;33.58;;;23.80;99.90;;;;;;5058776;28;20147;-66
2023/09/29 07:35:07;;;;;;;36.55;32.83;;;24.30;99.90;;;;;;5065541;28;20048;-66
2023/09/29 07:37:33;;;;;;;37.40;33.50;;;24.00;99.90;;;;;;5061971;28;20041;-66
2023/09/29 07:39:59;;;;;;;38.00;33.83;;;24.70;99.90;;;;;;5062587;28;20074;-66
2023/09/29 07:42:25;;;;;;;37.55;33.65;;;23.80;99.90;;;;;;5063621;28;20036;-66
2023/09/29 07:44:50;;;;;;;37.22;33.20;;;24.40;99.90;;;;;;5063259;28;20628;-66
2023/09/29 07:47:16;;;;;;;37.90;34.10;;;24.70;99.90;;;;;;5065789;28;20410;-66
2023/09/29 07:49:41;;;;;;;38.47;33.08;;;24.50;99.90;;;;;;5061224;28;20053;-66
2023/09/29 07:52:08;;;;;;;36.75;32.90;;;24.30;99.90;;;;;;5063156;28;20052;-65
2023/09/29 07:54:36;;;;;;;37.83;33.92;;;23.90;99.90;;;;;;5065303;28;20048;-66
2023/09/29 07:57:03;;;;;;;36.35;32.53;;;24.50;99.90;;;;;;5064531;28;20040;-66
2023/09/29 07:59:28;;;;;;;36.60;32.70;;;24.70;99.90;;;;;;5055187;28;20045;-66
2023/09/29 08:01:54;;;;;;;35.25;31.73;;;24.00;99.90;;;;;;5059468;28;20491;-66
2023/09/29 08:04:20;;;;;;;36.50;32.42;;;24.60;99.90;;;;;;5061885;28;20595;-65
2023/09/29 08:06:46;;;;;;;35.88;32.15;;;25.20;99.90;;;;;;5066316;28;20400;-63
2023/09/29 08:09:12;;;;;;;34.63;31.17;;;24.80;99.90;;;;;;5061212;28;20044;-62
2023/09/29 08:11:40;;;;;;;34.42;31.13;;;24.50;99.90;;;;;;5058203;28;20049;-62
2023/09/29 08:14:06;;;;;;;33.35;29.80;;;24.40;99.90;;;;;;5058078;28;20052;-63
2023/09/29 08:16:32;;;;;;;34.53;31.05;;;24.90;99.90;;;;;;5054077;28;20067;-63
2023/09/29 08:18:58;;;;;;;34.67;30.95;;;24.80;99.90;;;;;;5062348;28;20125;-64
2023/09/29 08:21:23;;;;;;;31.85;28.55;;;25.20;99.90;;;;;;5057981;28;20044;-62
2023/09/29 08:23:49;;;;;;;32.70;29.40;;;25.10;99.90;;;;;;5057949;28;20032;-62
2023/09/29 08:26:15;;;;;;;34.35;29.50;;;25.50;99.90;;;;;;5061852;28;20414;-62
2023/09/29 08:28:41;;;;;;;31.83;28.50;;;25.10;99.90;;;;;;5064322;28;20044;-63
2023/09/29 08:31:16;;;;;;;32.28;28.38;;;25.40;99.90;;;;;;5063134;28;20040;-63
2023/09/29 08:33:42;;;;;;;31.52;28.42;;;25.80;99.90;;;;;;5064084;28;20053;-63
2023/09/29 08:36:08;;;;;;;31.65;28.65;;;26.10;99.90;;;;;;5060713;28;20415;-62
2023/09/29 08:38:34;;;;;;;33.67;30.17;;;25.40;99.90;;;;;;5065694;28;20052;-63
2023/09/29 08:41:03;;;;;;;32.97;29.58;;;25.60;99.90;;;;;;5063952;28;20048;-62
2023/09/29 08:43:30;;;;;;;31.42;28.17;;;25.60;99.90;;;;;;5059044;28;20591;-63
2023/09/29 08:45:59;;;;;;;31.08;27.80;;;25.50;99.90;;;;;;5061639;28;20148;-64
2023/09/29 08:48:29;;;;;;;28.35;25.42;;;26.00;99.90;;;;;;5064659;28;20501;-63
2023/09/29 08:51:01;;;;;;;28.90;25.77;;;26.00;99.90;;;;;;5060164;28;20476;-62
2023/09/29 08:53:28;;;;;;;28.25;25.60;;;26.30;99.90;;;;;;5061153;28;20056;-62
2023/09/29 08:55:55;;;;;;;28.48;25.30;;;27.00;99.90;;;;;;5059404;28;20045;-62
2023/09/29 08:58:21;;;;;;;30.27;27.05;;;27.00;99.90;;;;;;5059979;28;20053;-62
2023/09/29 09:00:48;;;;;;;29.50;26.63;;;26.50;99.90;;;;;;5063470;28;20590;-62
2023/09/29 09:03:14;;;;;;;31.25;27.40;;;26.40;99.90;;;;;;5063461;28;20072;-63
2023/09/29 09:05:40;;;;;;;29.63;26.50;;;26.60;99.90;;;;;;5065942;28;20041;-63
2023/09/29 09:08:06;;;;;;;29.35;26.25;;;26.50;99.90;;;;;;5061123;28;20040;-63
2023/09/29 09:10:34;;;;;;;28.55;25.60;;;26.70;99.90;;;;;;5065102;28;20061;-63
2023/09/29 09:13:00;;;;;;;28.83;25.83;;;26.70;99.90;;;;;;5067358;28;20049;-63
2023/09/29 09:15:26;;;;;;;33.22;29.52;;;26.60;99.90;;;;;;5065269;28;20090;-62
2023/09/29 09:17:52;;;;;;;34.55;30.67;;;26.30;99.90;;;;;;5067710;28;20044;-69
2023/09/29 09:20:18;;;;;;;34.88;30.10;;;25.50;99.90;;;;;;5061600;28;20056;-71
2023/09/29 09:22:54;;;;;;;34.30;30.63;;;25.50;99.90;;;;;;5063322;28;20048;-70
2023/09/29 09:25:39;;;;;;;34.05;30.50;;;25.50;99.90;;;;;;5058242;28;20098;-69
2023/09/29 09:28:05;;;;;;;34.08;30.77;;;24.90;99.90;;;;;;5066845;28;20040;-70
2023/09/29 09:30:35;;;;;;;36.10;32.15;;;24.40;99.90;;;;;;5063834;28;20072;-69
2023/09/29 09:33:05;;;;;;;35.40;31.80;;;25.30;99.90;;;;;;5064122;28;20082;-69
2023/09/29 09:35:31;;;;;;;36.97;33.17;;;25.30;99.90;;;;;;5066633;28;20071;-69
2023/09/29 09:37:59;;;;;;;36.42;32.88;;;25.30;99.90;;;;;;5067666;28;20044;-70
2023/09/29 09:40:25;;;;;;;36.70;32.70;;;24.60;99.90;;;;;;5067866;28;20052;-70
2023/09/29 09:42:58;;;;;;;37.10;33.10;;;24.60;99.90;;;;;;5065949;28;20041;-70
2023/09/29 09:45:37;;;;;;;42.35;33.40;;;25.20;99.90;;;;;;5063783;28;20043;-69
2023/09/29 09:48:05;;;;;;;37.40;33.78;;;25.40;99.90;;;;;;5061881;28;20423;-69
2023/09/29 09:50:32;;;;;;;36.97;33.45;;;25.20;99.90;;;;;;5068246;28;20084;-69
2023/09/29 09:53:02;;;;;;;37.47;34.08;;;25.20;99.90;;;;;;5066654;28;20048;-69
2023/09/29 09:55:39;;;;;;;38.33;34.53;;;26.00;99.90;;;;;;5067557;28;20670;-70
2023/09/29 09:58:13;;;;;;;37.67;33.92;;;25.20;99.90;;;;;;5064468;28;20384;-69
2023/09/29 10:00:45;;;;;;;36.95;33.20;;;25.10;99.90;;;;;;5058644;28;20582;-70
2023/09/29 10:03:14;;;;;;;37.90;33.97;;;25.20;99.90;;;;;;5065334;28;20039;-69
2023/09/29 10:05:41;;;;;;;36.50;32.72;;;26.10;99.90;;;;;;5067926;28;20047;-69
2023/09/29 10:08:10;;;;;;;38.45;34.38;;;26.40;99.90;;;;;;5065512;28;20421;-69
2023/09/29 10:10:40;;;;;;;35.97;32.47;;;26.10;99.90;;;;;;5059930;28;20048;-69
2023/09/29 10:13:15;;;;;;;40.08;34.15;;;26.30;99.90;;;;;;5063590;28;20050;-69
2023/09/29 10:15:41;;;;;;;37.83;33.72;;;25.40;99.90;;;;;;5065095;28;20358;-66
2023/09/29 10:18:20;;;;;;;38.28;33.95;;;26.40;99.90;;;;;;5063681;28;20055;-70
2023/09/29 10:20:51;;;;;;;36.85;32.60;;;26.20;99.90;;;;;;5065275;28;20049;-70
2023/09/29 10:23:17;;;;;;;36.80;32.90;;;25.80;99.90;;;;;;5065464;28;20090;-69
2023/09/29 10:25:55;;;;;;;36.20;32.50;;;26.00;99.90;;;;;;5061846;28;20073;-69
2023/09/29 10:28:33;;;;;;;36.88;32.97;;;25.10;99.90;;;;;;5067325;28;20084;-66
2023/09/29 10:31:13;;;;;;;35.25;31.85;;;25.40;99.90;;;;;;5065168;28;20045;-66
2023/09/29 10:33:53;;;;;;;33.97;30.67;;;25.50;99.90;;;;;;5064576;28;20044;-66
2023/09/29 10:36:23;;;;;;;35.85;32.38;;;25.20;99.90;;;;;;5064872;28;20052;-66
2023/09/29 10:38:50;;;;;;;37.35;33.55;;;24.40;99.90;;;;;;5063559;28;20097;-66
2023/09/29 10:41:16;;;;;;;35.72;32.25;;;24.00;99.90;;;;;;5061678;28;20259;-66
2023/09/29 10:43:43;;;;;;;37.47;33.65;;;24.60;99.90;;;;;;5064607;28;20032;-66
2023/09/29 10:46:09;;;;;;;37.67;33.72;;;24.10;99.90;;;;;;5063862;28;20106;-66
2023/09/29 10:48:48;;;;;;;37.60;33.67;;;24.50;99.90;;;;;;5061278;28;20838;-66
2023/09/29 10:51:24;;;;;;;37.90;34.10;;;23.70;99.90;;;;;;5057420;28;20048;-66
2023/09/29 10:53:50;;;;;;;37.72;33.83;;;24.80;99.90;;;;;;5062274;28;20453;-66
2023/09/29 10:56:24;;;;;;;37.17;33.38;;;24.70;99.90;;;;;;5060345;28;20045;-66
2023/09/29 10:58:52;;;;;;;36.63;33.05;;;24.70;99.90;;;;;;5059275;28;20128;-66
2023/09/29 11:01:32;;;;;;;35.88;32.45;;;24.70;99.90;;;;;;5058415;28;20041;-66
2023/09/29 11:03:59;;;;;;;36.50;32.83;;;24.60;99.90;;;;;;5059787;28;20037;-66
2023/09/29 11:06:24;;;;;;;38.00;33.92;;;24.60;99.90;;;;;;5056850;28;20399;-66
2023/09/29 11:08:58;;;;;;;36.03;32.25;;;24.60;99.90;;;;;;5058922;28;20044;-66
2023/09/29 11:11:33;;;;;;;35.67;32.17;;;24.90;99.90;;;;;;5059469;28;20040;-66
2023/09/29 11:13:59;;;;;;;35.83;32.63;;;24.50;99.90;;;;;;5056049;28;20049;-66
2023/09/29 11:16:27;;;;;;;33.00;29.63;;;24.30;99.90;;;;;;5063621;28;20727;-66
2023/09/29 11:19:05;;;;;;;33.00;29.80;;;23.40;99.90;;;;;;5059773;28;20056;-66
2023/09/29 11:21:35;;;;;;;31.92;28.77;;;23.00;99.90;;;;;;5060645;28;20048;-67
2023/09/29 11:24:37;;;;;;;33.08;29.98;;;22.90;99.90;;;;;;5064511;28;20040;-66
2023/09/29 11:27:05;;;;;;;31.50;28.80;;;23.00;99.90;;;;;;5063803;28;20039;-66
2023/09/29 11:29:31;;;;;;;33.55;30.52;;;23.80;99.90;;;;;;5063164;28;20418;-66
2023/09/29 11:31:57;;;;;;;33.70;30.35;;;24.10;99.90;;;;;;5062208;28;20032;-66
2023/09/29 11:34:23;;;;;;;32.85;29.70;;;23.00;99.90;;;;;;5065414;28;20693;-67
2023/09/29 11:36:50;;;;;;;33.28;30.25;;;23.10;99.90;;;;;;5066668;28;20035;-64
2023/09/29 11:39:19;;;;;;;32.28;29.38;;;23.00;99.90;;;;;;5058681;28;20048;-64
2023/09/29 11:41:45;;;;;;;33.95;30.80;;;22.60;99.90;;;;;;5065081;28;20128;-64
2023/09/29 11:44:12;;;;;;;33.60;30.70;;;22.60;99.90;;;;;;5065510;28;20045;-63
2023/09/29 11:46:39;;;;;;;33.50;30.50;;;22.50;99.90;;;;;;5061940;28;20045;-63
2023/09/29 11:49:05;;;;;;;35.90;32.63;;;22.40;99.90;;;;;;5065390;28;20064;-62
2023/09/29 11:51:31;;;;;;;37.63;34.22;;;24.00;99.90;;;;;;5059768;28;20127;-64
2023/09/29 11:53:57;;;;;;;36.72;33.58;;;23.20;99.90;;;;;;5065461;28;20072;-64
2023/09/29 11:56:22;;;;;;;39.38;35.40;;;23.00;99.90;;;;;;5059346;28;20087;-67
2023/09/29 11:58:49;;;;;;;38.08;34.67;;;24.20;99.90;;;;;;5065017;28;20044;-64
2023/09/29 12:01:17;;;;;;;38.60;34.83;;;24.10;99.90;;;;;;5058758;28;20048;-65
2023/09/29 12:03:43;;;;;;;36.10;32.67;;;22.60;99.90;;;;;;5062209;28;20047;-65
2023/09/29 12:06:08;;;;;;;38.10;34.38;;;22.60;99.90;;;;;;5059233;28;20040;-63
2023/09/29 12:08:35;;;;;;;36.78;33.72;;;24.20;99.90;;;;;;5066568;28;20032;-63
2023/09/29 12:11:05;;;;;;;38.17;34.97;;;22.70;99.90;;;;;;5061432;28;20107;-65
2023/09/29 12:13:35;;;;;;;39.10;35.22;;;22.70;99.90;;;;;;5064699;28;20124;-63
2023/09/29 12:16:04;;;;;;;38.97;35.42;;;24.10;99.90;;;;;;5060202;28;20048;-64
2023/09/29 12:18:30;;;;;;;37.08;33.58;;;23.50;99.90;;;;;;5059099;28;20048;-63
2023/09/29 12:20:56;;;;;;;34.63;31.48;;;24.20;99.90;;;;;;5056701;28;20048;-65
2023/09/29 12:23:21;;;;;;;35.95;32.60;;;23.10;99.90;;;;;;5063993;28;20044;-64
2023/09/29 12:25:47;;;;;;;37.03;33.53;;;22.90;99.90;;;;;;5064150;28;20041;-64
2023/09/29 12:28:14;;;;;;;38.33;34.67;;;24.20;99.90;;;;;;5060129;28;20051;-64